Terminal Aerodrome Forecast
Issued by NWS Des Moines, IA

Home | Current Version | Previous Version | Text Only | Print | Product List | Glossary On
Versions: 1 2 3 4 5 6 7 8 9 10 11 12 13 14 15
000
FTUS43 KDMX 240520
TAFALO
TAF
KALO 240520Z 2406/2506 17007KT P6SM SCT250
     FM241500 17019G28KT P6SM BKN200
     FM250100 15012KT P6SM BKN120=

USA.gov is the U.S. government's official web portal to all federal, state and local government web resources and services.